Duck Hill, Mississippi
Current Conditions -  °F | °C
As of 11:53 AM on Saturday 25 Oct 2014 (Local Time) from KGWO Reporting Station
Clear Clear  
Wind Chill: 74°   Ceiling: Unl
Heat Index: 74°   Visibility: 10mi
Dew Point: 58°   Wind: 7mph
Humidity: 57%   Direction: 230°SW
Pressure: 30.14"   Gusts: NA
Location:  33.63°N, 89.71°W
Report Text: KGWO 251653Z AUTO 23006KT 10SM CLR 23/14 A3014 RMK AO2 SLP204 T02330144 TSNO
Loading
Personal Weather Stations






























Interactive Weather Map
Tropical Storm Tracking
New forecast layout! Learn more

10-Day Weather Forecast

Advertisements
Track Severe Weather on mobile